Tuesday, January 23, 2018, 6:55 PM EST
Back to Local

KIWI, Wiscasset Municipal Airport

Location: Wiscasset, ME, United States Lat: 43.967
Local Time: 6:55 PM EST (23:55 GMT) Lon: -69.717
Time Zone: US/Eastern Elev: 68 ft

Show me the last for .
Show Decoded

2018-01-23 18:15 METAR KIWI 232315Z AUTO VRB03KT 6SM BR OVC006 01/01 A2949 RMK AO2
                 RAE2258UPB2258E00 P0000 T00060006 =
2018-01-23 17:53 METAR KIWI 232253Z AUTO 00000KT 3SM -RA BR OVC002 01/01 A2949 RMK AO2 RAB2156
                 SLP987 P0004 T00060006 =
2018-01-23 17:31 METAR KIWI 232231Z AUTO 00000KT 3SM -RA BR OVC002 02/02 A2949 RMK AO2 RAB2156
                 P0001 T00170017 =
2018-01-23 17:08 METAR KIWI 232208Z AUTO 30003KT 1 1/2SM -RA BR OVC002 02/02 A2950 RMK AO2
                 RAB2156 P0001 T00220022 =
2018-01-23 16:53 METAR KIWI 232153Z AUTO 29006KT 1/4SM FG VV002 04/04 A2951 RMK AO2 UPE06RAB06E26
                 SLP992 P0002 T00440044 =
2018-01-23 15:53 METAR KIWI 232053Z AUTO 00000KT 3/4SM UP BR VV004 00/00 A2953 RMK AO2 UPE1959B15
                 PRESFR SLP000 P0011 60037 I3000 T00000000 58059 =
2018-01-23 15:32 METAR KIWI 232032Z AUTO 00000KT 1/2SM UP FG VV002 00/00 A2955 RMK AO2 UPE1959B15
                 P0002 T00000000 =
2018-01-23 15:20 METAR KIWI 232020Z AUTO 00000KT 3/4SM UP BR OVC001 00/00 A2956 RMK AO2
                 UPE1959B15 PRESFR P0001 T00000000 =
2018-01-23 15:16 METAR KIWI 232016Z AUTO 00000KT 1 1/4SM UP BR OVC002 00/00 A2957 RMK AO2
                 UPE1959B15 PRESFR P0000 T00000000 =
2018-01-23 15:11 METAR KIWI 232011Z AUTO 00000KT 2SM BR OVC002 00/00 A2958 RMK AO2 UPE1959 P0000
                 T00000000 =
2018-01-23 15:03 METAR KIWI 232003Z AUTO 00000KT 3SM BR OVC002 00/00 A2959 RMK AO2 UPE1959 P0000
                 T00000000 =
2018-01-23 14:53 METAR KIWI 231953Z AUTO 00000KT 2 1/2SM UP BR OVC002 00/00 A2960 RMK AO2
                 UPE24B48 SLP023 P0002 T00000000 =
2018-01-23 14:32 METAR KIWI 231932Z AUTO 00000KT 3SM BR OVC002 00/00 A2960 RMK AO2 UPE24 P0002
                 T00000000 =
2018-01-23 14:05 METAR KIWI 231905Z AUTO 00000KT 1 3/4SM UP BR OVC003 00/00 A2962 RMK AO2 PRESFR
                 P0001 T00000000 =
2018-01-23 14:02 METAR KIWI 231902Z AUTO 00000KT 3SM UP BR OVC003 00/00 A2963 RMK AO2 PRESFR
                 P0001 T00000000 =
2018-01-23 13:53 METAR KIWI 231853Z AUTO 00000KT 2SM UP BR OVC003 01/01 A2964 RMK AO2
                 UPB05FZRAE05 SLP038 P0024 I1000 T00060006 =
2018-01-23 13:43 METAR KIWI 231843Z AUTO 00000KT 1 3/4SM UP BR OVC005 00/00 A2965 RMK AO2
                 UPB05FZRAE05 P0021 I1000 T00000000 =
2018-01-23 13:35 METAR KIWI 231835Z AUTO 06004KT 2 1/2SM UP BR BKN003 OVC009 00/00 A2966 RMK AO2
                 UPB05FZRAE05 P0019 I1000 T00000000 =
2018-01-23 13:16 METAR KIWI 231816Z AUTO 00000KT 1 1/2SM UP BR OVC004 00/00 A2969 RMK AO2
                 UPB05FZRAE05 P0012 I1000 T00000000 =
2018-01-23 13:06 METAR KIWI 231806Z AUTO 00000KT 3/4SM UP BR OVC003 00/00 A2971 RMK AO2
                 UPB05FZRAE05 P0008 I1000 T00000000 =
2018-01-23 13:00 METAR KIWI 231800Z AUTO 00000KT 1 1/4SM FZRA BR OVC003 00/00 A2971 RMK AO2 P0004
                 I1000 T00000000 =
2018-01-23 12:53 METAR KIWI 231753Z AUTO 01003KT 2SM FZRA BR OVC003 00/00 A2970 RMK AO2 SLP059
                 P0023 60039 I1008 I6020 T00000000 10000 21044 58065 =
2018-01-23 12:51 METAR KIWI 231751Z AUTO VRB03KT 2SM FZRA BR OVC003 00/00 A2971 RMK AO2 P0022
                 I1008 =
2018-01-23 12:40 METAR KIWI 231740Z AUTO 00000KT 1 1/4SM FZRA BR OVC003 00/00 A2972 RMK AO2 VIS
                 3/4V2 1/2 P0016 I1007 T00000000 =
2018-01-23 12:19 METAR KIWI 231719Z AUTO 06003KT 2 1/2SM FZRA BR OVC004 M01/M01 A2974 RMK AO2
                 P0008 I1005 T10061006 =
2018-01-23 12:15 METAR KIWI 231715Z AUTO VRB03KT 4SM -FZRA BR OVC004 M01/M01 A2975 RMK AO2 P0005
                 I1003 T10111011 =
2018-01-23 12:05 METAR KIWI 231705Z AUTO VRB03KT 3SM FZRA BR OVC004 M01/M01 A2975 RMK AO2 PRESFR
                 P0003 I1001 T10111011 =
2018-01-23 11:53 METAR KIWI 231653Z AUTO VRB03KT 3SM -FZRA BR OVC004 M02/M02 A2978 RMK AO2 SLP084
                 P0009 I1006 T10171017 =
2018-01-23 11:16 METAR KIWI 231616Z AUTO VRB04KT 2 1/2SM -FZRA BR OVC003 M02/M02 A2983 RMK AO2
                 P0002 I1001 T10221022 =
2018-01-23 11:06 METAR KIWI 231606Z AUTO VRB03KT 1 3/4SM -FZRA BR OVC003 M02/M02 A2984 RMK AO2
                 P0001 I1001 T10221022 =
2018-01-23 10:53 METAR KIWI 231553Z AUTO VRB03KT 1SM -FZRA BR OVC003 M02/M02 A2986 RMK AO2
                 UPB36E40FZRAE01B40 SLP111 P0002 I1001 T10221022 =
2018-01-23 10:43 METAR KIWI 231543Z AUTO 00000KT 1 1/4SM -FZRA BR OVC003 M02/M02 A2987 RMK AO2
                 UPB36E40FZRAE01B40 P0000 I1000 T10221022 =
2018-01-23 10:37 METAR KIWI 231537Z AUTO 00000KT 1 3/4SM UP BR OVC003 M02/M02 A2987 RMK AO2
                 UPB36FZRAE01 P0000 I1000 T10221022 =
2018-01-23 10:01 METAR KIWI 231501Z AUTO 00000KT 4SM BR OVC003 M02/M02 A2989 RMK AO2 FZRAE01
                 P0000 I1000 T10221022 =
2018-01-23 09:53 METAR KIWI 231453Z AUTO VRB03KT 2SM -FZRA BR OVC003 M02/M02 A2990 RMK AO2
                 UPB1357E01FZRAB01E14B18E27B37 PRESFR SLP124 P0003 60005 I1002 I3005 T10221022
                 58034 =
2018-01-23 09:51 METAR KIWI 231451Z AUTO 02004KT 2SM -FZRA BR OVC003 M02/M02 A2990 RMK AO2
                 UPB1357E01FZRAB01E14B18E27B37 PRESFR P0003 I1002 =
2018-01-23 09:43 METAR KIWI 231443Z AUTO 00000KT 1 1/4SM -FZRA BR OVC003 M03/M03 A2991 RMK AO2
                 UPB1357E01FZRAB01E14B18E27B37 P0003 I1002 T10281028 =
2018-01-23 09:33 METAR KIWI 231433Z AUTO 00000KT 1 1/2SM BR OVC003 M03/M03 A2992 RMK AO2
                 UPB1357E01FZRAB01E14B18E27 P0001 I1001 T10331033 =
2018-01-23 09:24 METAR KIWI 231424Z AUTO VRB03KT 1 3/4SM -FZRA BR OVC003 M03/M03 A2993 RMK AO2
                 UPB1357E01FZRAB01E14B18 P0001 I1001 T10331033 =
2018-01-23 09:14 METAR KIWI 231414Z AUTO 01004KT 1 3/4SM BR OVC004 M03/M03 A2994 RMK AO2
                 UPB1357E01FZRAB01E14 P0000 I1001 T10331033 =
2018-01-23 09:07 METAR KIWI 231407Z AUTO VRB03KT 2SM -FZRA BR OVC004 M03/M03 A2995 RMK AO2
                 UPB1357E01FZRAB01 P0000 I1001 T10331033 =
2018-01-23 09:00 METAR KIWI 231400Z AUTO 00000KT 2SM UP BR OVC004 M03/M03 A2995 RMK AO2 UPB1357
                 P0000 I1000 T10331033 =
2018-01-23 08:53 METAR KIWI 231353Z AUTO 3SM BR OVC004 M03/M03 A2996 RMK AO2 UPB04E06FZRAB06E43
                 SLP145 P0002 I1002 T10331033 =
2018-01-23 08:49 METAR KIWI 231349Z AUTO 33004KT 3SM BR OVC004 M03/M03 A2996 RMK AO2
                 UPB04E06FZRAB06E43 P0002 I1002 =
2018-01-23 08:28 METAR KIWI 231328Z AUTO VRB03KT 4SM -FZRA BR OVC004 M03/M03 A2998 RMK AO2
                 UPB04E06FZRAB06 P0002 I1002 T10331033 =
2018-01-23 08:12 METAR KIWI 231312Z AUTO VRB03KT 2 1/2SM -FZRA BR OVC004 M03/M03 A2999 RMK AO2
                 UPB04E06FZRAB06 P0001 I1001 T10331033 =
2018-01-23 07:53 METAR KIWI 231253Z AUTO 00000KT 2SM BR OVC004 M04/M04 A3000 RMK AO2 FZRAB05E15
                 SLP158 P0000 I1001 T10391039 =
2018-01-23 07:20 METAR KIWI 231220Z AUTO 06003KT 2 1/2SM BR OVC004 M04/M04 A2999 RMK AO2
                 FZRAB05E15 PRESFR P0000 I1001 T10391044 =
2018-01-23 07:11 METAR KIWI 231211Z AUTO VRB03KT 3SM -FZRA BR OVC004 M04/M04 A3001 RMK AO2
                 FZRAB05 P0000 I1001 T10391044 =
2018-01-23 06:53 METAR KIWI 231153Z AUTO VRB03KT 3SM BR OVC004 M04/M04 A3003 RMK AO2 SLP170 60003
                 70015 I1000 I6007 T10441044 11039 21056 56039 =
2018-01-23 05:53 METAR KIWI 231053Z AUTO 00000KT 3SM BR OVC004 M04/M04 A3006 RMK AO2 SLP179 I1002
                 T10441044 =
2018-01-23 05:45 METAR KIWI 231045Z AUTO VRB03KT 3SM BR OVC004 M04/M04 A3006 RMK AO2 I1002
                 T10441044 =
2018-01-23 05:24 METAR KIWI 231024Z AUTO VRB04KT 2 1/2SM BR OVC005 M04/M04 A3008 RMK AO2 PRESFR
                 I1001 T10441044 =
2018-01-23 04:53 METAR KIWI 230953Z AUTO 00000KT 4SM BR OVC005 M04/M04 A3011 RMK AO2 SLP196 I1001
                 T10441044 =
2018-01-23 03:53 METAR KIWI 230853Z AUTO 3SM BR OVC006 M05/M05 A3014 RMK AO2 SLP208 60003 I1001
                 I3004 T10501050 58036 =
2018-01-23 02:53 METAR KIWI 230753Z AUTO VRB04KT 4SM BR OVC008 M05/M06 A3018 RMK AO2 FZRAE25
                 SLP222 P0000 I1002 T10501056 =
2018-01-23 02:31 METAR KIWI 230731Z AUTO VRB03KT 5SM BR OVC008 M06/M06 A3020 RMK AO2 FZRAE25
                 P0000 I1001 T10561056 =
2018-01-23 02:20 METAR KIWI 230720Z AUTO VRB03KT 4SM -FZRA BR OVC009 M06/M06 A3020 RMK AO2 P0000
                 I1001 T10561061 =
2018-01-23 02:12 METAR KIWI 230712Z AUTO VRB03KT 4SM -FZRA BR OVC010 M06/M06 A3021 RMK AO2 P0000
                 I1001 T10561061 =
2018-01-23 02:02 METAR KIWI 230702Z AUTO VRB03KT 4SM BR OVC010 M06/M06 A3022 RMK AO2 FZRAE0656
                 P0000 I1000 T10561061 =
2018-01-23 01:53 METAR KIWI 230653Z AUTO VRB03KT 5SM -FZRA BR OVC010 M06/M07 A3022 RMK AO2
                 UPB05E10FZRAB10 SLP236 P0003 I1001 T10561067 =
2018-01-23 01:16 METAR KIWI 230616Z AUTO 00000KT 4SM -FZRA BR OVC010 M06/M06 A3023 RMK AO2
                 UPB05E10FZRAB10 P0001 I1001 T10561061 =
2018-01-23 00:53 METAR KIWI 230553Z AUTO VRB03KT 5SM BR OVC011 M06/M06 A3025 RMK AO2
                 UPE08SNB0456E07B08E09 SLP244 P0001 60012 I1000 I6000 T10561061 11056 21067 56023
                 =
2018-01-23 00:17 METAR KIWI 230517Z AUTO 00000KT 4SM BR OVC012 M06/M07 A3025 RMK AO2
                 UPE08SNB0456E07B08E09 P0001 T10611067 =
2018-01-22 23:53 METAR KIWI 230453Z AUTO VRB04KT 2SM UP BR OVC012 M06/M07 A3026 RMK AO2
                 UPB53SNE53 SLP247 P0003 T10611067 400111067 =
2018-01-22 23:41 METAR KIWI 230441Z AUTO VRB04KT 1 1/2SM -SN BR OVC014 M06/M07 A3027 RMK AO2
                 P0003 T10611067 =
2018-01-22 22:53 METAR KIWI 230353Z AUTO VRB03KT 1SM -SN BR VV011 M06/M07 A3029 RMK AO2 SLP257
                 P0003 T10611072 =
2018-01-22 22:38 METAR KIWI 230338Z AUTO VRB04KT 1SM -SN BR VV011 M06/M07 A3029 RMK AO2 P0003
                 T10611072 =
2018-01-22 22:26 METAR KIWI 230326Z AUTO 00000KT 3/4SM -SN BR VV010 M06/M07 A3030 RMK AO2 P0002
                 T10611072 =
2018-01-22 21:53 METAR KIWI 230253Z AUTO VRB03KT 3/4SM -SN BR VV009 M07/M07 A3032 RMK AO2 SLP268
                 P0004 60005 T10671072 58022 =
2018-01-22 21:36 METAR KIWI 230236Z AUTO VRB03KT 3/4SM -SN BR VV009 M06/M07 A3034 RMK AO2 P0003
                 T10611072 =
2018-01-22 21:29 METAR KIWI 230229Z AUTO 00000KT 1 1/4SM -SN BR OVC010 M06/M07 A3035 RMK AO2
                 P0002 T10611072 =
2018-01-22 21:12 METAR KIWI 230212Z AUTO VRB04KT 1 1/2SM -SN BR OVC012 M06/M07 A3033 RMK AO2
                 P0002 T10611072 =
2018-01-22 21:02 METAR KIWI 230202Z AUTO 06005KT 2 1/2SM -SN BR BKN014 OVC025 M06/M08 A3032 RMK
                 AO2 P0001 T10611078 =
2018-01-22 20:53 METAR KIWI 230153Z AUTO VRB04KT 3SM -SN BR BKN016 OVC025 M06/M08 A3034 RMK AO2
                 SNB13 PRESFR SLP274 P0001 T10611078 =
2018-01-22 19:53 METAR KIWI 230053Z AUTO VRB04KT 10SM OVC016 M06/M08 A3037 RMK AO2 SLP286
                 T10611083 =

Support USWX by starting your Amazon purchase here.